sensor_id;sensor_type;location;lat;lon;timestamp;pressure;altitude;pressure_sealevel;temperature;humidity
11448;BME280;43755;49.736;8.734;2023-05-02T00:01:33;97939.97;;;11.80;100.00
11448;BME280;43755;49.736;8.734;2023-05-02T00:03:35;97937.66;;;11.72;100.00
11448;BME280;43755;49.736;8.734;2023-05-02T00:05:37;97935.16;;;11.69;100.00
11448;BME280;43755;49.736;8.734;2023-05-02T00:07:39;97933.59;;;11.65;100.00
11448;BME280;43755;49.736;8.734;2023-05-02T00:09:41;97929.38;;;11.61;100.00
11448;BME280;43755;49.736;8.734;2023-05-02T00:11:42;97931.09;;;11.62;100.00
11448;BME280;43755;49.736;8.734;2023-05-02T00:13:44;97926.81;;;11.60;100.00
11448;BME280;43755;49.736;8.734;2023-05-02T00:15:45;97932.88;;;11.62;100.00
11448;BME280;43755;49.736;8.734;2023-05-02T00:17:46;97927.97;;;11.54;100.00
11448;BME280;43755;49.736;8.734;2023-05-02T00:19:48;97935.19;;;11.50;100.00
11448;BME280;43755;49.736;8.734;2023-05-02T00:21:49;97925.50;;;11.49;100.00
11448;BME280;43755;49.736;8.734;2023-05-02T00:23:52;97935.34;;;11.47;100.00
11448;BME280;43755;49.736;8.734;2023-05-02T00:25:53;97930.91;;;11.48;100.00
11448;BME280;43755;49.736;8.734;2023-05-02T00:27:55;97921.31;;;11.45;100.00
11448;BME280;43755;49.736;8.734;2023-05-02T00:29:56;97919.75;;;11.41;100.00
11448;BME280;43755;49.736;8.734;2023-05-02T00:31:58;97920.09;;;11.34;100.00
11448;BME280;43755;49.736;8.734;2023-05-02T00:34:00;97928.03;;;11.34;100.00
11448;BME280;43755;49.736;8.734;2023-05-02T00:36:02;97926.25;;;11.34;100.00
11448;BME280;43755;49.736;8.734;2023-05-02T00:38:03;97923.72;;;11.31;100.00
11448;BME280;43755;49.736;8.734;2023-05-02T00:40:07;97920.25;;;11.31;100.00
11448;BME280;43755;49.736;8.734;2023-05-02T00:42:09;97936.50;;;11.23;100.00
11448;BME280;43755;49.736;8.734;2023-05-02T00:44:11;97936.72;;;11.19;100.00
11448;BME280;43755;49.736;8.734;2023-05-02T00:46:13;97930.66;;;11.15;100.00
11448;BME280;43755;49.736;8.734;2023-05-02T00:48:14;97934.81;;;11.02;100.00
11448;BME280;43755;49.736;8.734;2023-05-02T00:50:18;97933.97;;;11.01;100.00
11448;BME280;43755;49.736;8.734;2023-05-02T00:52:20;97934.97;;;10.99;100.00
11448;BME280;43755;49.736;8.734;2023-05-02T00:54:22;97941.50;;;10.90;100.00
11448;BME280;43755;49.736;8.734;2023-05-02T00:56:24;97944.53;;;10.83;100.00
11448;BME280;43755;49.736;8.734;2023-05-02T00:58:27;97952.34;;;10.65;100.00
11448;BME280;43755;49.736;8.734;2023-05-02T01:00:35;97944.75;;;10.58;100.00
11448;BME280;43755;49.736;8.734;2023-05-02T01:02:47;97935.94;;;10.57;100.00
11448;BME280;43755;49.736;8.734;2023-05-02T01:04:59;97940.63;;;10.51;100.00
11448;BME280;43755;49.736;8.734;2023-05-02T01:07:11;97936.53;;;10.44;100.00
11448;BME280;43755;49.736;8.734;2023-05-02T01:09:28;97941.97;;;10.41;100.00
11448;BME280;43755;49.736;8.734;2023-05-02T01:11:43;97941.81;;;10.44;100.00
11448;BME280;43755;49.736;8.734;2023-05-02T01:13:50;97938.78;;;10.33;100.00
11448;BME280;43755;49.736;8.734;2023-05-02T01:15:55;97948.91;;;10.23;100.00
11448;BME280;43755;49.736;8.734;2023-05-02T01:17:59;97957.09;;;10.17;100.00
11448;BME280;43755;49.736;8.734;2023-05-02T01:20:04;97955.72;;;10.07;100.00
11448;BME280;43755;49.736;8.734;2023-05-02T01:22:10;97959.53;;;10.00;100.00
11448;BME280;43755;49.736;8.734;2023-05-02T01:24:13;97959.91;;;9.91;100.00
11448;BME280;43755;49.736;8.734;2023-05-02T01:26:24;97957.44;;;9.86;100.00
11448;BME280;43755;49.736;8.734;2023-05-02T01:30:43;97955.97;;;9.57;100.00
11448;BME280;43755;49.736;8.734;2023-05-02T01:32:47;97963.22;;;9.52;100.00
11448;BME280;43755;49.736;8.734;2023-05-02T01:34:52;97972.00;;;9.53;100.00
11448;BME280;43755;49.736;8.734;2023-05-02T01:36:56;97972.91;;;9.52;100.00
11448;BME280;43755;49.736;8.734;2023-05-02T01:39:00;97977.47;;;9.48;100.00
11448;BME280;43755;49.736;8.734;2023-05-02T01:41:03;97971.56;;;9.41;100.00
11448;BME280;43755;49.736;8.734;2023-05-02T01:43:07;97975.84;;;9.44;100.00
11448;BME280;43755;49.736;8.734;2023-05-02T01:45:10;97974.44;;;9.35;100.00
11448;BME280;43755;49.736;8.734;2023-05-02T01:47:14;97980.00;;;9.28;100.00
11448;BME280;43755;49.736;8.734;2023-05-02T01:49:17;97991.38;;;9.30;100.00
11448;BME280;43755;49.736;8.734;2023-05-02T01:51:20;97990.78;;;9.22;100.00
11448;BME280;43755;49.736;8.734;2023-05-02T01:53:24;97987.66;;;9.12;100.00
11448;BME280;43755;49.736;8.734;2023-05-02T01:55:25;97990.38;;;9.09;100.00
11448;BME280;43755;49.736;8.734;2023-05-02T01:57:28;97985.09;;;9.09;100.00
11448;BME280;43755;49.736;8.734;2023-05-02T01:59:30;97996.78;;;9.02;100.00
11448;BME280;43755;49.736;8.734;2023-05-02T02:01:34;97998.88;;;8.94;100.00
11448;BME280;43755;49.736;8.734;2023-05-02T02:03:37;97998.75;;;8.97;100.00
11448;BME280;43755;49.736;8.734;2023-05-02T02:05:41;98004.31;;;8.89;100.00
11448;BME280;43755;49.736;8.734;2023-05-02T02:07:42;98005.50;;;8.81;100.00
11448;BME280;43755;49.736;8.734;2023-05-02T02:09:44;98005.38;;;8.84;100.00
11448;BME280;43755;49.736;8.734;2023-05-02T02:11:48;98009.03;;;8.80;100.00
11448;BME280;43755;49.736;8.734;2023-05-02T02:13:59;98017.88;;;8.79;100.00
11448;BME280;43755;49.736;8.734;2023-05-02T02:16:03;98011.94;;;8.72;100.00
11448;BME280;43755;49.736;8.734;2023-05-02T02:18:09;98014.66;;;8.71;100.00
11448;BME280;43755;49.736;8.734;2023-05-02T02:20:14;98013.16;;;8.63;100.00
11448;BME280;43755;49.736;8.734;2023-05-02T02:22:17;98014.91;;;8.63;100.00
11448;BME280;43755;49.736;8.734;2023-05-02T02:24:21;98019.59;;;8.55;100.00
11448;BME280;43755;49.736;8.734;2023-05-02T02:26:23;98020.41;;;8.57;100.00
11448;BME280;43755;49.736;8.734;2023-05-02T02:28:24;98025.63;;;8.58;100.00
11448;BME280;43755;49.736;8.734;2023-05-02T02:30:26;98032.94;;;8.50;100.00
11448;BME280;43755;49.736;8.734;2023-05-02T02:32:27;98031.41;;;8.43;100.00
11448;BME280;43755;49.736;8.734;2023-05-02T02:34:29;98029.78;;;8.39;100.00
11448;BME280;43755;49.736;8.734;2023-05-02T02:36:38;98031.56;;;8.39;100.00
11448;BME280;43755;49.736;8.734;2023-05-02T02:38:44;98031.78;;;8.33;100.00
11448;BME280;43755;49.736;8.734;2023-05-02T02:40:52;98030.00;;;8.33;100.00
11448;BME280;43755;49.736;8.734;2023-05-02T02:43:03;98038.03;;;8.29;100.00
11448;BME280;43755;49.736;8.734;2023-05-02T02:45:15;98032.81;;;8.27;100.00
11448;BME280;43755;49.736;8.734;2023-05-02T02:47:22;98036.41;;;8.25;100.00
11448;BME280;43755;49.736;8.734;2023-05-02T02:49:30;98034.81;;;8.19;100.00
11448;BME280;43755;49.736;8.734;2023-05-02T02:51:43;98034.94;;;8.16;100.00
11448;BME280;43755;49.736;8.734;2023-05-02T02:53:58;98037.53;;;8.17;100.00
11448;BME280;43755;49.736;8.734;2023-05-02T02:56:05;98040.41;;;8.10;100.00
11448;BME280;43755;49.736;8.734;2023-05-02T02:58:19;98040.50;;;8.07;100.00
11448;BME280;43755;49.736;8.734;2023-05-02T03:00:24;98043.38;;;7.99;100.00
11448;BME280;43755;49.736;8.734;2023-05-02T03:02:30;98046.16;;;7.95;100.00
11448;BME280;43755;49.736;8.734;2023-05-02T03:04:34;98038.31;;;7.93;100.00
11448;BME280;43755;49.736;8.734;2023-05-02T03:06:38;98047.16;;;7.91;100.00
11448;BME280;43755;49.736;8.734;2023-05-02T03:08:41;98048.16;;;7.87;100.00
11448;BME280;43755;49.736;8.734;2023-05-02T03:10:42;98051.75;;;7.84;100.00
11448;BME280;43755;49.736;8.734;2023-05-02T03:12:44;98050.06;;;7.83;100.00
11448;BME280;43755;49.736;8.734;2023-05-02T03:14:46;98057.13;;;7.81;100.00
11448;BME280;43755;49.736;8.734;2023-05-02T03:16:47;98057.16;;;7.79;100.00
11448;BME280;43755;49.736;8.734;2023-05-02T03:18:50;98059.22;;;7.70;100.00
11448;BME280;43755;49.736;8.734;2023-05-02T03:20:51;98052.22;;;7.69;100.00
11448;BME280;43755;49.736;8.734;2023-05-02T03:22:54;98054.00;;;7.68;100.00
11448;BME280;43755;49.736;8.734;2023-05-02T03:24:55;98064.50;;;7.70;100.00
11448;BME280;43755;49.736;8.734;2023-05-02T03:26:57;98059.22;;;7.70;100.00
11448;BME280;43755;49.736;8.734;2023-05-02T03:28:59;98061.19;;;7.63;100.00
11448;BME280;43755;49.736;8.734;2023-05-02T03:31:00;98063.84;;;7.62;100.00
11448;BME280;43755;49.736;8.734;2023-05-02T03:33:02;98064.94;;;7.55;100.00
11448;BME280;43755;49.736;8.734;2023-05-02T03:35:07;98067.69;;;7.52;100.00
11448;BME280;43755;49.736;8.734;2023-05-02T03:37:08;98073.09;;;7.47;100.00
11448;BME280;43755;49.736;8.734;2023-05-02T03:39:11;98074.06;;;7.43;100.00
11448;BME280;43755;49.736;8.734;2023-05-02T03:41:12;98075.00;;;7.42;100.00
11448;BME280;43755;49.736;8.734;2023-05-02T03:43:14;98074.75;;;7.50;100.00
11448;BME280;43755;49.736;8.734;2023-05-02T03:45:15;98086.25;;;7.47;100.00
11448;BME280;43755;49.736;8.734;2023-05-02T03:47:17;98081.16;;;7.41;100.00
11448;BME280;43755;49.736;8.734;2023-05-02T03:49:18;98081.25;;;7.36;100.00
11448;BME280;43755;49.736;8.734;2023-05-02T03:51:20;98090.88;;;7.37;100.00
11448;BME280;43755;49.736;8.734;2023-05-02T03:53:21;98085.53;;;7.42;100.00
11448;BME280;43755;49.736;8.734;2023-05-02T03:55:24;98086.41;;;7.41;100.00
11448;BME280;43755;49.736;8.734;2023-05-02T03:57:28;98088.03;;;7.45;100.00
11448;BME280;43755;49.736;8.734;2023-05-02T03:59:31;98089.66;;;7.49;100.00
11448;BME280;43755;49.736;8.734;2023-05-02T04:01:33;98094.75;;;7.55;100.00
11448;BME280;43755;49.736;8.734;2023-05-02T04:03:34;98092.81;;;7.62;100.00
11448;BME280;43755;49.736;8.734;2023-05-02T04:05:36;98093.81;;;7.58;100.00
11448;BME280;43755;49.736;8.734;2023-05-02T04:07:37;98097.41;;;7.55;100.00
11448;BME280;43755;49.736;8.734;2023-05-02T04:09:38;98105.19;;;7.60;100.00
11448;BME280;43755;49.736;8.734;2023-05-02T04:11:41;98102.41;;;7.64;100.00
11448;BME280;43755;49.736;8.734;2023-05-02T04:13:42;98102.34;;;7.66;100.00
11448;BME280;43755;49.736;8.734;2023-05-02T04:15:44;98104.06;;;7.67;100.00
11448;BME280;43755;49.736;8.734;2023-05-02T04:17:45;98111.78;;;7.73;100.00
11448;BME280;43755;49.736;8.734;2023-05-02T04:19:47;98115.09;;;7.79;100.00
11448;BME280;43755;49.736;8.734;2023-05-02T04:21:48;98122.94;;;7.82;100.00
11448;BME280;43755;49.736;8.734;2023-05-02T04:23:50;98128.91;;;7.88;100.00
11448;BME280;43755;49.736;8.734;2023-05-02T04:25:52;98124.19;;;7.99;100.00
11448;BME280;43755;49.736;8.734;2023-05-02T04:27:55;98122.31;;;8.02;100.00
11448;BME280;43755;49.736;8.734;2023-05-02T04:29:56;98136.19;;;8.07;100.00
11448;BME280;43755;49.736;8.734;2023-05-02T04:31:58;98127.25;;;8.13;100.00
11448;BME280;43755;49.736;8.734;2023-05-02T04:33:59;98134.31;;;8.12;100.00
11448;BME280;43755;49.736;8.734;2023-05-02T04:36:01;98133.28;;;8.16;100.00
11448;BME280;43755;49.736;8.734;2023-05-02T04:38:02;98139.31;;;8.20;100.00
11448;BME280;43755;49.736;8.734;2023-05-02T04:40:05;98140.00;;;8.27;100.00
11448;BME280;43755;49.736;8.734;2023-05-02T04:42:07;98145.28;;;8.27;100.00
11448;BME280;43755;49.736;8.734;2023-05-02T04:44:10;98153.81;;;8.36;100.00
11448;BME280;43755;49.736;8.734;2023-05-02T04:46:11;98153.81;;;8.36;100.00
11448;BME280;43755;49.736;8.734;2023-05-02T04:48:12;98162.31;;;8.44;100.00
11448;BME280;43755;49.736;8.734;2023-05-02T04:50:14;98164.59;;;8.55;100.00
11448;BME280;43755;49.736;8.734;2023-05-02T04:52:15;98159.09;;;8.62;100.00
11448;BME280;43755;49.736;8.734;2023-05-02T04:54:17;98160.72;;;8.67;100.00
11448;BME280;43755;49.736;8.734;2023-05-02T04:56:19;98164.59;;;8.83;100.00
11448;BME280;43755;49.736;8.734;2023-05-02T04:58:21;98166.00;;;8.93;100.00
11448;BME280;43755;49.736;8.734;2023-05-02T05:00:23;98177.22;;;8.99;100.00
11448;BME280;43755;49.736;8.734;2023-05-02T05:02:25;98172.84;;;8.98;100.00
11448;BME280;43755;49.736;8.734;2023-05-02T05:04:27;98181.31;;;9.08;100.00
11448;BME280;43755;49.736;8.734;2023-05-02T05:06:28;98187.16;;;9.18;100.00
11448;BME280;43755;49.736;8.734;2023-05-02T05:08:30;98185.97;;;9.26;100.00
11448;BME280;43755;49.736;8.734;2023-05-02T05:10:33;98190.16;;;9.32;100.00
11448;BME280;43755;49.736;8.734;2023-05-02T05:12:34;98189.22;;;9.34;100.00
11448;BME280;43755;49.736;8.734;2023-05-02T05:14:36;98195.88;;;9.44;100.00
11448;BME280;43755;49.736;8.734;2023-05-02T05:16:38;98199.22;;;9.50;100.00
11448;BME280;43755;49.736;8.734;2023-05-02T05:18:40;98201.75;;;9.53;100.00
11448;BME280;43755;49.736;8.734;2023-05-02T05:20:41;98207.69;;;9.59;100.00
11448;BME280;43755;49.736;8.734;2023-05-02T05:22:43;98211.78;;;9.68;100.00
11448;BME280;43755;49.736;8.734;2023-05-02T05:24:50;98212.59;;;9.70;100.00
11448;BME280;43755;49.736;8.734;2023-05-02T05:26:51;98213.50;;;9.69;100.00
11448;BME280;43755;49.736;8.734;2023-05-02T05:28:52;98216.84;;;9.74;100.00
11448;BME280;43755;49.736;8.734;2023-05-02T05:30:54;98215.19;;;9.71;100.00
11448;BME280;43755;49.736;8.734;2023-05-02T05:32:58;98222.47;;;9.65;100.00
11448;BME280;43755;49.736;8.734;2023-05-02T05:34:59;98222.50;;;9.63;100.00
11448;BME280;43755;49.736;8.734;2023-05-02T05:37:01;98225.03;;;9.66;100.00
11448;BME280;43755;49.736;8.734;2023-05-02T05:39:02;98230.38;;;9.65;100.00
11448;BME280;43755;49.736;8.734;2023-05-02T05:41:04;98237.41;;;9.66;100.00
11448;BME280;43755;49.736;8.734;2023-05-02T05:43:07;98239.00;;;9.70;100.00
11448;BME280;43755;49.736;8.734;2023-05-02T05:45:09;98244.94;;;9.76;100.00
11448;BME280;43755;49.736;8.734;2023-05-02T05:47:11;98248.50;;;9.75;100.00
11448;BME280;43755;49.736;8.734;2023-05-02T05:49:15;98250.88;;;9.83;100.00
11448;BME280;43755;49.736;8.734;2023-05-02T05:51:17;98254.44;;;9.82;100.00
11448;BME280;43755;49.736;8.734;2023-05-02T05:53:19;98260.28;;;9.90;100.00
11448;BME280;43755;49.736;8.734;2023-05-02T05:55:20;98260.06;;;9.96;100.00
11448;BME280;43755;49.736;8.734;2023-05-02T05:57:22;98261.34;;;10.09;100.00
11448;BME280;43755;49.736;8.734;2023-05-02T05:59:24;98257.78;;;10.10;100.00
11448;BME280;43755;49.736;8.734;2023-05-02T06:01:26;98262.22;;;10.10;100.00
11448;BME280;43755;49.736;8.734;2023-05-02T06:03:27;98260.19;;;10.18;100.00
11448;BME280;43755;49.736;8.734;2023-05-02T06:05:30;98264.25;;;10.26;100.00
11448;BME280;43755;49.736;8.734;2023-05-02T06:07:31;98261.53;;;10.30;100.00
11448;BME280;43755;49.736;8.734;2023-05-02T06:09:33;98278.03;;;10.36;100.00
11448;BME280;43755;49.736;8.734;2023-05-02T06:11:35;98275.66;;;10.52;100.00
11448;BME280;43755;49.736;8.734;2023-05-02T06:13:37;98278.06;;;10.58;100.00
11448;BME280;43755;49.736;8.734;2023-05-02T06:15:38;98278.75;;;10.63;100.00
11448;BME280;43755;49.736;8.734;2023-05-02T06:17:40;98277.69;;;10.67;100.00
11448;BME280;43755;49.736;8.734;2023-05-02T06:19:41;98281.38;;;10.63;100.00
11448;BME280;43755;49.736;8.734;2023-05-02T06:21:44;98290.59;;;10.53;100.00
11448;BME280;43755;49.736;8.734;2023-05-02T06:23:45;98280.31;;;10.45;100.00
11448;BME280;43755;49.736;8.734;2023-05-02T06:25:47;98288.28;;;10.44;100.00
11448;BME280;43755;49.736;8.734;2023-05-02T06:27:48;98288.81;;;10.53;100.00
11448;BME280;43755;49.736;8.734;2023-05-02T06:29:50;98292.44;;;10.51;100.00
11448;BME280;43755;49.736;8.734;2023-05-02T06:31:54;98294.75;;;10.60;100.00
11448;BME280;43755;49.736;8.734;2023-05-02T06:33:55;98296.56;;;10.58;100.00
11448;BME280;43755;49.736;8.734;2023-05-02T06:35:57;98298.47;;;10.54;100.00
11448;BME280;43755;49.736;8.734;2023-05-02T06:38:00;98306.13;;;10.62;100.00
11448;BME280;43755;49.736;8.734;2023-05-02T06:40:02;98303.41;;;10.63;100.00
11448;BME280;43755;49.736;8.734;2023-05-02T06:42:03;98304.09;;;10.68;100.00
11448;BME280;43755;49.736;8.734;2023-05-02T06:44:05;98307.63;;;10.91;100.00
11448;BME280;43755;49.736;8.734;2023-05-02T06:46:07;98312.78;;;10.95;100.00
11448;BME280;43755;49.736;8.734;2023-05-02T06:48:09;98314.41;;;10.98;100.00
11448;BME280;43755;49.736;8.734;2023-05-02T06:50:10;98311.72;;;11.21;100.00
11448;BME280;43755;49.736;8.734;2023-05-02T06:52:12;98317.84;;;11.43;100.00
11448;BME280;43755;49.736;8.734;2023-05-02T06:54:15;98311.63;;;11.66;100.00
11448;BME280;43755;49.736;8.734;2023-05-02T06:56:17;98318.72;;;11.66;100.00
11448;BME280;43755;49.736;8.734;2023-05-02T06:58:18;98321.94;;;11.52;100.00
11448;BME280;43755;49.736;8.734;2023-05-02T07:00:20;98321.97;;;11.50;100.00
11448;BME280;43755;49.736;8.734;2023-05-02T07:02:21;98326.84;;;11.61;100.00
11448;BME280;43755;49.736;8.734;2023-05-02T07:04:23;98328.75;;;11.58;100.00
11448;BME280;43755;49.736;8.734;2023-05-02T07:06:24;98331.59;;;11.75;100.00
11448;BME280;43755;49.736;8.734;2023-05-02T07:08:26;98333.41;;;11.95;100.00
11448;BME280;43755;49.736;8.734;2023-05-02T07:10:29;98328.03;;;11.96;100.00
11448;BME280;43755;49.736;8.734;2023-05-02T07:12:30;98331.72;;;11.72;100.00
11448;BME280;43755;49.736;8.734;2023-05-02T07:14:31;98334.78;;;11.83;100.00
11448;BME280;43755;49.736;8.734;2023-05-02T07:16:33;98334.31;;;12.14;100.00
11448;BME280;43755;49.736;8.734;2023-05-02T07:18:34;98338.38;;;12.43;100.00
11448;BME280;43755;49.736;8.734;2023-05-02T07:20:36;98338.00;;;12.50;100.00
11448;BME280;43755;49.736;8.734;2023-05-02T07:22:39;98334.00;;;12.79;100.00
11448;BME280;43755;49.736;8.734;2023-05-02T07:24:41;98332.50;;;12.92;100.00
11448;BME280;43755;49.736;8.734;2023-05-02T07:26:44;98333.44;;;12.91;100.00
11448;BME280;43755;49.736;8.734;2023-05-02T07:28:45;98341.53;;;12.69;100.00
11448;BME280;43755;49.736;8.734;2023-05-02T07:30:46;98341.41;;;12.54;100.00
11448;BME280;43755;49.736;8.734;2023-05-02T07:32:48;98347.31;;;12.20;100.00
11448;BME280;43755;49.736;8.734;2023-05-02T07:34:49;98344.16;;;12.12;100.00
11448;BME280;43755;49.736;8.734;2023-05-02T07:36:53;98340.88;;;12.25;100.00
11448;BME280;43755;49.736;8.734;2023-05-02T07:38:55;98339.81;;;12.29;100.00
11448;BME280;43755;49.736;8.734;2023-05-02T07:40:57;98347.38;;;12.39;100.00
11448;BME280;43755;49.736;8.734;2023-05-02T07:43:00;98343.06;;;12.36;100.00
11448;BME280;43755;49.736;8.734;2023-05-02T07:45:02;98339.88;;;12.48;100.00
11448;BME280;43755;49.736;8.734;2023-05-02T07:47:04;98339.66;;;12.53;100.00
11448;BME280;43755;49.736;8.734;2023-05-02T07:49:05;98340.59;;;12.52;100.00
11448;BME280;43755;49.736;8.734;2023-05-02T07:51:07;98362.16;;;12.44;100.00
11448;BME280;43755;49.736;8.734;2023-05-02T07:53:09;98347.31;;;12.20;100.00
11448;BME280;43755;49.736;8.734;2023-05-02T07:55:11;98356.75;;;12.07;100.00
11448;BME280;43755;49.736;8.734;2023-05-02T07:57:12;98353.75;;;11.94;100.00
11448;BME280;43755;49.736;8.734;2023-05-02T07:59:15;98354.78;;;11.90;100.00
11448;BME280;43755;49.736;8.734;2023-05-02T08:01:16;98365.00;;;11.79;100.00
11448;BME280;43755;49.736;8.734;2023-05-02T08:03:18;98356.47;;;11.71;100.00
11448;BME280;43755;49.736;8.734;2023-05-02T08:05:19;98360.97;;;11.69;100.00
11448;BME280;43755;49.736;8.734;2023-05-02T08:07:21;98362.53;;;11.74;100.00
11448;BME280;43755;49.736;8.734;2023-05-02T08:09:22;98366.97;;;11.74;100.00
11448;BME280;43755;49.736;8.734;2023-05-02T08:11:24;98369.78;;;11.69;100.00
11448;BME280;43755;49.736;8.734;2023-05-02T08:13:25;98364.94;;;11.80;100.00
11448;BME280;43755;49.736;8.734;2023-05-02T08:15:28;98368.13;;;11.88;100.00
11448;BME280;43755;49.736;8.734;2023-05-02T08:17:30;98363.97;;;12.03;100.00
11448;BME280;43755;49.736;8.734;2023-05-02T08:19:31;98372.56;;;12.08;100.00
11448;BME280;43755;49.736;8.734;2023-05-02T08:21:33;98374.03;;;12.15;100.00
11448;BME280;43755;49.736;8.734;2023-05-02T08:23:35;98377.56;;;12.16;100.00
11448;BME280;43755;49.736;8.734;2023-05-02T08:25:36;98370.31;;;12.19;100.00
11448;BME280;43755;49.736;8.734;2023-05-02T08:27:38;98391.66;;;11.96;100.00
11448;BME280;43755;49.736;8.734;2023-05-02T08:29:39;98387.16;;;11.98;100.00
11448;BME280;43755;49.736;8.734;2023-05-02T08:31:42;98380.53;;;11.88;100.00
11448;BME280;43755;49.736;8.734;2023-05-02T08:33:43;98395.13;;;11.98;100.00
11448;BME280;43755;49.736;8.734;2023-05-02T08:35:45;98398.41;;;11.83;100.00
11448;BME280;43755;49.736;8.734;2023-05-02T08:37:47;98397.16;;;11.92;100.00
11448;BME280;43755;49.736;8.734;2023-05-02T08:39:48;98401.34;;;11.97;100.00
11448;BME280;43755;49.736;8.734;2023-05-02T08:41:49;98400.56;;;11.95;100.00
11448;BME280;43755;49.736;8.734;2023-05-02T08:43:51;98401.53;;;11.93;100.00
11448;BME280;43755;49.736;8.734;2023-05-02T08:45:56;98393.47;;;11.96;100.00
11448;BME280;43755;49.736;8.734;2023-05-02T08:48:03;98403.00;;;12.00;100.00
11448;BME280;43755;49.736;8.734;2023-05-02T08:50:07;98408.97;;;12.05;100.00
11448;BME280;43755;49.736;8.734;2023-05-02T08:52:09;98411.28;;;11.92;100.00
11448;BME280;43755;49.736;8.734;2023-05-02T08:54:15;98414.84;;;11.91;100.00
11448;BME280;43755;49.736;8.734;2023-05-02T08:56:17;98411.69;;;12.03;100.00
11448;BME280;43755;49.736;8.734;2023-05-02T08:58:18;98410.72;;;12.06;100.00
11448;BME280;43755;49.736;8.734;2023-05-02T09:00:20;98420.00;;;12.16;100.00
11448;BME280;43755;49.736;8.734;2023-05-02T09:02:27;98419.63;;;12.25;100.00
11448;BME280;43755;49.736;8.734;2023-05-02T09:04:40;98422.53;;;12.39;100.00
11448;BME280;43755;49.736;8.734;2023-05-02T09:06:42;98433.69;;;12.47;100.00
11448;BME280;43755;49.736;8.734;2023-05-02T09:08:45;98433.38;;;12.73;100.00
11448;BME280;43755;49.736;8.734;2023-05-02T09:10:48;98429.63;;;12.98;100.00
11448;BME280;43755;49.736;8.734;2023-05-02T09:12:50;98429.28;;;13.05;100.00
11448;BME280;43755;49.736;8.734;2023-05-02T09:15:09;98436.16;;;13.09;100.00
11448;BME280;43755;49.736;8.734;2023-05-02T09:17:11;98440.75;;;12.87;100.00
11448;BME280;43755;49.736;8.734;2023-05-02T09:19:23;98441.34;;;12.73;100.00
11448;BME280;43755;49.736;8.734;2023-05-02T09:21:35;98437.59;;;12.59;100.00
11448;BME280;43755;49.736;8.734;2023-05-02T09:23:40;98436.47;;;12.64;100.00
11448;BME280;43755;49.736;8.734;2023-05-02T09:25:42;98444.25;;;12.67;100.00
11448;BME280;43755;49.736;8.734;2023-05-02T09:27:51;98441.50;;;12.70;100.00
11448;BME280;43755;49.736;8.734;2023-05-02T09:30:20;98459.59;;;12.61;100.00
11448;BME280;43755;49.736;8.734;2023-05-02T09:32:45;98467.03;;;12.32;100.00
11448;BME280;43755;49.736;8.734;2023-05-02T09:35:04;98464.31;;;12.34;100.00
11448;BME280;43755;49.736;8.734;2023-05-02T09:37:07;98455.44;;;12.35;100.00
11448;BME280;43755;49.736;8.734;2023-05-02T09:39:12;98459.94;;;12.53;100.00
11448;BME280;43755;49.736;8.734;2023-05-02T09:41:14;98460.28;;;12.66;100.00
11448;BME280;43755;49.736;8.734;2023-05-02T09:43:17;98461.97;;;12.87;100.00
11448;BME280;43755;49.736;8.734;2023-05-02T09:45:20;98465.81;;;12.80;100.00
11448;BME280;43755;49.736;8.734;2023-05-02T09:47:23;98463.72;;;12.68;100.00
11448;BME280;43755;49.736;8.734;2023-05-02T09:49:38;98477.31;;;12.81;100.00
11448;BME280;43755;49.736;8.734;2023-05-02T09:51:40;98470.97;;;12.64;100.00
11448;BME280;43755;49.736;8.734;2023-05-02T09:53:45;98470.00;;;12.86;100.00
11448;BME280;43755;49.736;8.734;2023-05-02T09:55:46;98466.75;;;12.79;100.00
11448;BME280;43755;49.736;8.734;2023-05-02T09:57:48;98467.00;;;12.93;100.00
11448;BME280;43755;49.736;8.734;2023-05-02T09:59:53;98470.97;;;13.24;100.00
11448;BME280;43755;49.736;8.734;2023-05-02T10:01:56;98467.28;;;13.26;100.00
11448;BME280;43755;49.736;8.734;2023-05-02T10:03:57;98466.75;;;13.57;100.00
11448;BME280;43755;49.736;8.734;2023-05-02T10:05:59;98465.88;;;13.75;100.00
11448;BME280;43755;49.736;8.734;2023-05-02T10:08:02;98467.53;;;13.78;98.73
11448;BME280;43755;49.736;8.734;2023-05-02T10:10:07;98472.28;;;13.71;96.68
11448;BME280;43755;49.736;8.734;2023-05-02T10:12:14;98474.84;;;13.73;96.42
11448;BME280;43755;49.736;8.734;2023-05-02T10:14:18;98472.63;;;13.45;98.39
11448;BME280;43755;49.736;8.734;2023-05-02T10:16:24;98472.13;;;13.56;100.00
11448;BME280;43755;49.736;8.734;2023-05-02T10:18:38;98470.03;;;13.43;100.00
11448;BME280;43755;49.736;8.734;2023-05-02T10:20:43;98467.75;;;13.55;100.00
11448;BME280;43755;49.736;8.734;2023-05-02T10:22:49;98464.94;;;13.76;100.00
11448;BME280;43755;49.736;8.734;2023-05-02T10:24:51;98470.13;;;13.61;95.59
11448;BME280;43755;49.736;8.734;2023-05-02T10:26:54;98462.91;;;13.63;99.74
11448;BME280;43755;49.736;8.734;2023-05-02T10:28:56;98464.41;;;13.87;95.28
11448;BME280;43755;49.736;8.734;2023-05-02T10:30:59;98467.66;;;13.75;99.09
11448;BME280;43755;49.736;8.734;2023-05-02T10:33:02;98459.03;;;13.70;100.00
11448;BME280;43755;49.736;8.734;2023-05-02T10:35:05;98466.06;;;13.89;100.00
11448;BME280;43755;49.736;8.734;2023-05-02T10:37:07;98462.38;;;13.92;100.00
11448;BME280;43755;49.736;8.734;2023-05-02T10:39:08;98471.91;;;13.96;99.27
11448;BME280;43755;49.736;8.734;2023-05-02T10:41:13;98463.03;;;13.78;94.27
11448;BME280;43755;49.736;8.734;2023-05-02T10:43:16;98467.03;;;14.06;97.65
11448;BME280;43755;49.736;8.734;2023-05-02T10:45:30;98466.88;;;14.26;96.36
11448;BME280;43755;49.736;8.734;2023-05-02T10:47:32;98466.31;;;14.38;90.83
11448;BME280;43755;49.736;8.734;2023-05-02T10:49:48;98466.38;;;14.37;91.58
11448;BME280;43755;49.736;8.734;2023-05-02T10:51:50;98466.69;;;14.30;84.31